Time;durP1;ratioP1;P1;durP2;ratioP2;P2;SDS_P1;SDS_P2;PMS_P1;PMS_P2;Temp;Humidity;BMP_temperature;BMP_pressure;BME280_temperature;BME280_humidity;BME280_pressure;Samples;Min_cycle;Max_cycle;Signal;HPM_P1;HPM_P2
2022/03/16 00:00:00;;;;;;;15.00;12.60;;;8.40;1.00;;;;;;6312426;28;20239;-55
2022/03/16 00:03:02;;;;;;;19.63;13.77;;;8.40;1.00;;;;;;6293717;28;20233;-54
2022/03/16 00:06:05;;;;;;;14.23;12.77;;;8.40;1.00;;;;;;6311290;28;20328;-55
2022/03/16 00:09:08;;;;;;;19.30;14.07;;;8.40;1.00;;;;;;6311361;28;20248;-54
2022/03/16 00:12:13;;;;;;;19.47;14.43;;;8.40;1.00;;;;;;6308946;28;20333;-54
2022/03/16 00:15:16;;;;;;;17.00;13.23;;;8.40;1.00;;;;;;6287621;28;20760;-54
2022/03/16 00:18:20;;;;;;;15.40;13.50;;;8.40;1.00;;;;;;6285502;28;20363;-54
2022/03/16 00:21:23;;;;;;;16.63;13.60;;;8.40;1.00;;;;;;6300795;28;20371;-55
2022/03/16 00:24:25;;;;;;;15.33;12.90;;;8.40;1.00;;;;;;6310319;28;20264;-53
2022/03/16 00:27:30;;;;;;;21.47;14.47;;;8.40;1.00;;;;;;6309893;28;20263;-53
2022/03/16 00:30:33;;;;;;;18.20;13.57;;;8.40;1.00;;;;;;6303060;28;20438;-55
2022/03/16 00:33:36;;;;;;;20.73;14.23;;;8.30;1.00;;;;;;6297065;28;20233;-54
2022/03/16 00:36:39;;;;;;;16.10;13.67;;;8.30;1.00;;;;;;6309662;28;20241;-54
2022/03/16 00:39:42;;;;;;;18.30;13.67;;;8.30;1.00;;;;;;6306599;28;20240;-55
2022/03/16 00:42:46;;;;;;;23.83;14.97;;;8.30;1.00;;;;;;6307249;28;20373;-55
2022/03/16 00:45:49;;;;;;;19.40;14.50;;;8.30;1.00;;;;;;6300531;28;20328;-55
2022/03/16 00:48:51;;;;;;;20.33;15.33;;;8.20;1.00;;;;;;6297364;28;20364;-55
2022/03/16 00:51:54;;;;;;;18.10;15.13;;;8.20;1.00;;;;;;6304773;28;20237;-53
2022/03/16 00:54:57;;;;;;;23.63;15.87;;;8.10;1.00;;;;;;6308572;28;20233;-55
2022/03/16 00:58:02;;;;;;;22.60;15.07;;;8.10;1.00;;;;;;6298147;28;20410;-54
2022/03/16 01:01:05;;;;;;;19.90;16.57;;;8.10;1.00;;;;;;6293340;28;20314;-55
2022/03/16 01:04:08;;;;;;;22.57;16.90;;;8.00;1.00;;;;;;6292797;28;20247;-54
2022/03/16 01:07:11;;;;;;;25.07;16.47;;;8.00;1.00;;;;;;6303599;28;20321;-54
2022/03/16 01:10:14;;;;;;;20.93;15.87;;;7.90;1.00;;;;;;6310834;28;20282;-54
2022/03/16 01:13:19;;;;;;;21.80;15.63;;;7.90;1.00;;;;;;6304496;28;20233;-55
2022/03/16 01:16:22;;;;;;;20.83;16.47;;;7.80;1.00;;;;;;6286208;28;20236;-55
2022/03/16 01:19:25;;;;;;;20.20;15.97;;;7.80;1.00;;;;;;6286944;28;20269;-55
2022/03/16 01:22:27;;;;;;;20.37;16.37;;;7.70;1.00;;;;;;6302591;28;20388;-55
2022/03/16 01:25:30;;;;;;;21.27;15.97;;;7.70;1.00;;;;;;6309717;28;20628;-53
2022/03/16 01:28:34;;;;;;;22.13;15.50;;;7.70;1.00;;;;;;6304692;28;20230;-55
2022/03/16 01:31:37;;;;;;;23.60;17.00;;;7.60;1.00;;;;;;6284109;28;20318;-54
2022/03/16 01:34:40;;;;;;;19.70;14.83;;;7.60;1.00;;;;;;6304232;28;20359;-54
2022/03/16 01:37:45;;;;;;;24.00;17.07;;;7.50;1.00;;;;;;6306181;28;20329;-54
2022/03/16 01:40:48;;;;;;;22.77;15.60;;;7.50;1.00;;;;;;6308465;28;20358;-55
2022/03/16 01:43:55;;;;;;;21.97;16.10;;;7.40;1.00;;;;;;6308125;28;20310;-55
2022/03/16 01:46:57;;;;;;;16.50;14.80;;;7.40;1.00;;;;;;6305179;28;20377;-54
2022/03/16 01:50:00;;;;;;;20.87;15.87;;;7.30;1.00;;;;;;6299465;28;20259;-54
2022/03/16 01:53:04;;;;;;;20.53;15.60;;;7.30;1.00;;;;;;6295267;28;20314;-55
2022/03/16 01:56:07;;;;;;;23.83;17.73;;;7.30;1.00;;;;;;6310239;28;20298;-53
2022/03/16 01:59:12;;;;;;;20.47;16.47;;;7.20;1.00;;;;;;6305800;28;20323;-54
2022/03/16 02:02:15;;;;;;;18.37;15.57;;;7.20;1.00;;;;;;6284770;28;20293;-54
2022/03/16 02:05:19;;;;;;;21.83;16.73;;;7.20;1.00;;;;;;6307667;28;20241;-53
2022/03/16 02:08:22;;;;;;;23.23;17.23;;;7.10;1.00;;;;;;6293261;28;20367;-55
2022/03/16 02:11:24;;;;;;;23.77;16.83;;;7.10;1.00;;;;;;6305861;28;20307;-55
2022/03/16 02:14:29;;;;;;;22.37;16.17;;;7.10;1.00;;;;;;6309508;28;20355;-54
2022/03/16 02:17:33;;;;;;;20.77;14.90;;;7.10;1.00;;;;;;6296460;28;20230;-54
2022/03/16 02:20:37;;;;;;;19.23;15.13;;;7.10;1.00;;;;;;6295732;28;20244;-55
2022/03/16 02:23:41;;;;;;;21.93;16.20;;;7.20;1.00;;;;;;6306171;28;20298;-55
2022/03/16 02:26:44;;;;;;;22.67;16.30;;;7.00;1.00;;;;;;6295109;28;20232;-54
2022/03/16 02:29:46;;;;;;;21.03;17.37;;;6.80;1.00;;;;;;6283742;28;20237;-55
2022/03/16 02:32:49;;;;;;;23.83;16.30;;;6.90;1.00;;;;;;6289554;28;20323;-54
2022/03/16 02:35:52;;;;;;;27.50;18.03;;;6.90;1.00;;;;;;6305290;28;20237;-54
2022/03/16 02:38:56;;;;;;;23.63;16.40;;;6.90;1.00;;;;;;6307754;28;20320;-53
2022/03/16 02:41:59;;;;;;;23.13;16.80;;;6.90;1.00;;;;;;6306648;28;20640;-53
2022/03/16 02:45:02;;;;;;;22.57;16.83;;;6.80;1.00;;;;;;6288019;28;20240;-55
2022/03/16 02:48:05;;;;;;;22.30;16.90;;;6.80;1.00;;;;;;6283287;28;20295;-53
2022/03/16 02:51:08;;;;;;;21.57;15.73;;;6.80;1.00;;;;;;6282949;28;20945;-55
2022/03/16 02:54:12;;;;;;;21.30;15.50;;;6.80;1.00;;;;;;6298751;28;20358;-53
2022/03/16 02:57:16;;;;;;;29.17;17.37;;;6.70;1.00;;;;;;6297618;28;20236;-55
2022/03/16 03:00:20;;;;;;;23.87;17.33;;;6.80;1.00;;;;;;6283947;28;20294;-53
2022/03/16 03:03:23;;;;;;;19.80;15.50;;;6.60;1.00;;;;;;6294051;28;20236;-54
2022/03/16 03:06:27;;;;;;;23.67;16.30;;;6.60;1.00;;;;;;6302954;28;20320;-54
2022/03/16 03:09:31;;;;;;;26.53;17.27;;;6.60;1.00;;;;;;6306571;28;20754;-54
2022/03/16 03:12:35;;;;;;;20.63;16.53;;;6.70;1.00;;;;;;6306893;28;21032;-54
2022/03/16 03:15:38;;;;;;;21.70;17.00;;;6.50;1.00;;;;;;6306075;28;20549;-54
2022/03/16 03:18:41;;;;;;;26.83;16.13;;;6.40;1.00;;;;;;6308059;28;20236;-54
2022/03/16 03:21:44;;;;;;;18.77;14.73;;;6.80;1.00;;;;;;6305910;28;20375;-54
2022/03/16 03:24:48;;;;;;;20.53;16.50;;;6.40;1.00;;;;;;6303725;28;20244;-54
2022/03/16 03:27:51;;;;;;;21.30;16.00;;;6.50;1.00;;;;;;6283774;28;20316;-54
2022/03/16 03:30:53;;;;;;;20.30;16.63;;;6.50;1.00;;;;;;6287778;28;20378;-55
2022/03/16 03:33:57;;;;;;;24.00;17.30;;;6.40;1.00;;;;;;6295541;28;20804;-54
2022/03/16 03:37:00;;;;;;;25.73;18.00;;;6.60;1.00;;;;;;6300396;28;20239;-55
2022/03/16 03:40:05;;;;;;;21.97;16.67;;;6.40;1.00;;;;;;6306764;28;20229;-55
2022/03/16 03:43:08;;;;;;;23.10;17.40;;;6.20;1.00;;;;;;6304694;28;20240;-55
2022/03/16 03:46:11;;;;;;;26.77;17.60;;;6.50;1.00;;;;;;6286804;28;20316;-54
2022/03/16 03:49:14;;;;;;;21.60;16.93;;;6.40;1.00;;;;;;6286854;28;20729;-55
2022/03/16 03:52:16;;;;;;;27.10;17.53;;;6.60;1.00;;;;;;6292672;28;20313;-54
2022/03/16 03:55:22;;;;;;;28.40;18.83;;;6.20;1.00;;;;;;6312249;28;20232;-55
2022/03/16 03:58:25;;;;;;;26.37;18.20;;;6.30;1.00;;;;;;6307106;28;20233;-53
2022/03/16 04:01:28;;;;;;;23.27;18.40;;;6.60;1.00;;;;;;6301346;28;20318;-55
2022/03/16 04:04:31;;;;;;;28.13;18.90;;;6.30;1.00;;;;;;6304769;28;20883;-56
2022/03/16 04:07:34;;;;;;;25.73;17.80;;;6.20;1.00;;;;;;6310591;28;20890;-54
2022/03/16 04:10:39;;;;;;;25.80;17.93;;;6.40;1.00;;;;;;6311230;28;20247;-55
2022/03/16 04:13:42;;;;;;;27.03;18.13;;;6.20;1.00;;;;;;6310526;28;20745;-54
2022/03/16 04:16:44;;;;;;;24.73;17.77;;;6.00;1.00;;;;;;6311991;28;20367;-53
2022/03/16 04:19:48;;;;;;;25.53;18.57;;;6.10;1.00;;;;;;6291423;28;20237;-55
2022/03/16 04:22:50;;;;;;;28.40;19.23;;;6.30;1.00;;;;;;6305717;28;20494;-54
2022/03/16 04:25:54;;;;;;;26.97;18.50;;;6.20;1.00;;;;;;6310115;28;20721;-55
2022/03/16 04:28:57;;;;;;;29.07;18.63;;;6.20;1.00;;;;;;6309152;28;20366;-54
2022/03/16 04:32:00;;;;;;;26.30;19.17;;;5.90;1.00;;;;;;6290629;28;20835;-54
2022/03/16 04:35:03;;;;;;;22.30;17.60;;;5.90;1.00;;;;;;6308940;28;20713;-54
2022/03/16 04:38:08;;;;;;;25.37;18.13;;;5.90;1.00;;;;;;6302636;28;20235;-54
2022/03/16 04:41:12;;;;;;;26.13;18.37;;;6.00;1.00;;;;;;6303624;28;20721;-55
2022/03/16 04:44:15;;;;;;;27.50;18.20;;;5.90;1.00;;;;;;6303907;28;20263;-54
2022/03/16 04:47:17;;;;;;;32.07;20.20;;;5.80;1.00;;;;;;6307883;28;20331;-55
2022/03/16 04:50:22;;;;;;;29.10;20.83;;;5.90;1.00;;;;;;6302198;28;20224;-54
2022/03/16 04:53:24;;;;;;;28.90;19.50;;;5.60;1.00;;;;;;6308207;28;20267;-54
2022/03/16 04:56:29;;;;;;;28.97;18.73;;;5.90;1.00;;;;;;6306660;28;20478;-54
2022/03/16 04:59:31;;;;;;;30.03;20.37;;;5.90;1.00;;;;;;6297380;28;20527;-54
2022/03/16 05:02:34;;;;;;;26.07;19.60;;;5.80;1.00;;;;;;6308504;28;20225;-54
2022/03/16 05:05:37;;;;;;;23.73;19.30;;;5.70;1.00;;;;;;6306368;28;20252;-54
2022/03/16 05:08:40;;;;;;;28.47;20.33;;;5.70;1.00;;;;;;6306892;28;20402;-58
2022/03/16 05:11:44;;;;;;;30.03;19.67;;;5.70;1.00;;;;;;6305313;28;20796;-56
2022/03/16 05:14:47;;;;;;;26.73;20.23;;;6.00;1.00;;;;;;6306135;28;20591;-54
2022/03/16 05:17:50;;;;;;;29.30;20.07;;;5.70;1.00;;;;;;6307053;28;20463;-55
2022/03/16 05:20:53;;;;;;;32.57;21.70;;;5.70;1.00;;;;;;6301706;28;20228;-55
2022/03/16 05:23:56;;;;;;;29.80;20.20;;;5.60;1.00;;;;;;6301517;28;20514;-54
2022/03/16 05:27:02;;;;;;;31.37;20.23;;;5.50;1.00;;;;;;6306335;28;20251;-54
2022/03/16 05:30:06;;;;;;;29.60;20.63;;;5.70;1.00;;;;;;6309369;28;20232;-55
2022/03/16 05:33:09;;;;;;;33.10;20.83;;;5.50;1.00;;;;;;6304422;28;20259;-56
2022/03/16 05:36:12;;;;;;;31.40;20.83;;;5.50;1.00;;;;;;6300717;28;20855;-55
2022/03/16 05:39:14;;;;;;;28.43;20.13;;;5.50;1.00;;;;;;6305200;28;20290;-55
2022/03/16 05:42:18;;;;;;;35.40;22.73;;;5.50;1.00;;;;;;6303604;28;20469;-54
2022/03/16 05:45:22;;;;;;;29.07;21.70;;;5.50;1.00;;;;;;6305611;28;20410;-55
2022/03/16 05:48:25;;;;;;;40.27;22.43;;;5.60;1.00;;;;;;6306603;28;20326;-54
2022/03/16 05:51:28;;;;;;;30.17;21.23;;;5.70;1.00;;;;;;6305862;28;20252;-53
2022/03/16 05:54:31;;;;;;;37.57;23.07;;;5.70;1.00;;;;;;6300944;28;20331;-55
2022/03/16 05:57:39;;;;;;;33.30;22.60;;;5.50;1.00;;;;;;6305748;28;20860;-55
2022/03/16 06:00:42;;;;;;;30.47;21.70;;;5.80;1.00;;;;;;6298874;28;20233;-55
2022/03/16 06:03:46;;;;;;;33.50;20.63;;;5.70;1.00;;;;;;6306504;28;20243;-55
2022/03/16 06:06:48;;;;;;;29.07;20.90;;;5.80;1.00;;;;;;6306133;28;20375;-54
2022/03/16 06:09:51;;;;;;;30.07;21.00;;;5.70;1.00;;;;;;6305192;28;20700;-54
2022/03/16 06:12:57;;;;;;;33.90;22.50;;;5.80;1.00;;;;;;6302579;28;20327;-55
2022/03/16 06:16:00;;;;;;;33.77;21.77;;;5.70;1.00;;;;;;6306215;28;20229;-55
2022/03/16 06:19:03;;;;;;;31.87;22.17;;;5.80;1.00;;;;;;6300406;28;20728;-53
2022/03/16 06:22:05;;;;;;;28.40;19.87;;;5.90;1.00;;;;;;6304502;28;20287;-53
2022/03/16 06:25:09;;;;;;;29.73;21.07;;;5.80;1.00;;;;;;6305852;28;20315;-53
2022/03/16 06:28:13;;;;;;;29.37;21.70;;;5.90;1.00;;;;;;6301354;28;20306;-54
2022/03/16 06:31:16;;;;;;;33.20;21.57;;;6.10;1.00;;;;;;6300379;28;20233;-54
2022/03/16 06:34:19;;;;;;;28.37;20.57;;;6.00;1.00;;;;;;6304300;28;20236;-54
2022/03/16 06:37:21;;;;;;;31.03;21.40;;;6.10;1.00;;;;;;6298975;28;20764;-56
2022/03/16 06:40:24;;;;;;;33.60;22.50;;;6.20;1.00;;;;;;6301000;28;20348;-55
2022/03/16 06:43:28;;;;;;;30.10;20.93;;;6.60;1.00;;;;;;6294628;28;20229;-55
2022/03/16 06:46:31;;;;;;;27.73;20.20;;;7.00;1.00;;;;;;6305805;28;20800;-55
2022/03/16 06:49:34;;;;;;;31.77;21.10;;;7.10;1.00;;;;;;6299737;28;20645;-55
2022/03/16 06:52:38;;;;;;;30.70;22.07;;;7.10;1.00;;;;;;6294392;28;20237;-54
2022/03/16 06:55:41;;;;;;;32.93;22.00;;;7.00;1.00;;;;;;6302893;28;20366;-54
2022/03/16 06:58:45;;;;;;;30.03;21.33;;;6.90;1.00;;;;;;6297416;28;20538;-60
2022/03/16 07:01:48;;;;;;;30.93;22.23;;;7.10;1.00;;;;;;6299274;28;20236;-55
2022/03/16 07:04:51;;;;;;;28.30;20.73;;;7.10;1.00;;;;;;6308273;28;20736;-54
2022/03/16 07:07:56;;;;;;;30.13;21.23;;;7.20;1.00;;;;;;6307519;28;20236;-55
2022/03/16 07:10:59;;;;;;;28.77;21.10;;;7.30;1.00;;;;;;6297858;28;20738;-55
2022/03/16 07:17:23;;;;;;;29.63;21.07;;;7.50;1.00;;;;;;6302721;28;20252;-55
2022/03/16 07:20:26;;;;;;;28.37;20.50;;;7.30;1.00;;;;;;6306746;28;20236;-54
2022/03/16 07:23:29;;;;;;;29.13;21.17;;;7.40;1.00;;;;;;6310370;28;20237;-55
2022/03/16 07:26:32;;;;;;;28.30;20.87;;;7.50;1.00;;;;;;6311144;28;20470;-54
2022/03/16 07:29:36;;;;;;;29.23;19.43;;;8.20;1.00;;;;;;6306927;28;20647;-54
2022/03/16 07:32:39;;;;;;;33.03;20.47;;;8.40;1.00;;;;;;6308174;28;20406;-54
2022/03/16 07:35:43;;;;;;;26.40;19.87;;;8.50;1.00;;;;;;6309798;28;20796;-54
2022/03/16 07:38:46;;;;;;;32.50;21.07;;;8.50;1.00;;;;;;6304242;28;20288;-54
2022/03/16 07:41:49;;;;;;;24.93;19.53;;;8.40;1.00;;;;;;6312779;28;20324;-54
2022/03/16 07:44:53;;;;;;;21.20;17.33;;;8.20;1.00;;;;;;6299912;28;20320;-53
2022/03/16 07:47:56;;;;;;;20.57;18.03;;;8.10;1.00;;;;;;6309866;28;20240;-55
2022/03/16 07:50:59;;;;;;;24.07;17.90;;;8.10;1.00;;;;;;6306683;28;20232;-54
2022/03/16 07:54:01;;;;;;;22.37;18.97;;;8.00;1.00;;;;;;6308716;28;20793;-55
2022/03/16 07:57:05;;;;;;;26.37;18.10;;;7.80;1.00;;;;;;6304724;28;20554;-54
2022/03/16 08:00:12;;;;;;;23.03;18.63;;;7.80;1.00;;;;;;6308816;28;20232;-55
2022/03/16 08:03:15;;;;;;;20.40;16.70;;;7.70;1.00;;;;;;6304156;28;20233;-55
2022/03/16 08:06:18;;;;;;;21.07;16.20;;;7.60;1.00;;;;;;6307749;28;20236;-54
2022/03/16 08:09:24;;;;;;;20.33;17.77;;;7.50;1.00;;;;;;6307518;28;20241;-53
2022/03/16 08:12:27;;;;;;;20.10;17.47;;;7.60;1.00;;;;;;6306287;28;20286;-55
2022/03/16 08:15:32;;;;;;;22.73;18.90;;;7.50;1.00;;;;;;6307124;28;20331;-53
2022/03/16 08:18:36;;;;;;;21.83;18.20;;;7.50;1.00;;;;;;6307816;28;24047;-55
2022/03/16 08:21:38;;;;;;;19.90;17.53;;;7.60;1.00;;;;;;6308697;28;20323;-54
2022/03/16 08:24:41;;;;;;;23.77;16.97;;;7.60;1.00;;;;;;6303699;28;20297;-53
2022/03/16 08:27:53;;;;;;;21.37;17.50;;;7.70;1.00;;;;;;6307977;28;20228;-55
2022/03/16 08:30:58;;;;;;;28.87;17.73;;;7.90;1.00;;;;;;6306630;28;20781;-53
2022/03/16 08:34:02;;;;;;;21.60;17.83;;;8.00;1.00;;;;;;6305189;28;20314;-54
2022/03/16 08:37:05;;;;;;;22.63;18.23;;;8.00;1.00;;;;;;6302252;28;20372;-54
2022/03/16 08:40:15;;;;;;;21.00;16.80;;;8.10;1.00;;;;;;6308213;28;20239;-54
2022/03/16 08:43:18;;;;;;;20.03;17.93;;;8.10;1.00;;;;;;6301019;28;20309;-55
2022/03/16 08:46:22;;;;;;;17.97;15.87;;;8.20;1.00;;;;;;6308767;28;20761;-55
2022/03/16 08:49:25;;;;;;;19.93;16.20;;;8.40;1.00;;;;;;6305799;28;20229;-53
2022/03/16 08:52:28;;;;;;;21.37;17.33;;;8.40;1.00;;;;;;6302968;28;20300;-58
2022/03/16 08:55:30;;;;;;;20.33;15.57;;;8.50;1.00;;;;;;6305993;28;20250;-55
2022/03/16 08:58:33;;;;;;;17.23;15.20;;;8.60;1.00;;;;;;6307184;28;20304;-53
2022/03/16 09:01:38;;;;;;;16.63;14.93;;;8.50;1.00;;;;;;6299381;28;20236;-53
2022/03/16 09:04:42;;;;;;;20.00;15.30;;;8.50;1.00;;;;;;6300843;28;20237;-54
2022/03/16 09:07:44;;;;;;;17.40;15.57;;;8.60;1.00;;;;;;6306278;28;20331;-54
2022/03/16 09:10:48;;;;;;;17.67;15.87;;;8.50;1.00;;;;;;6304885;28;20247;-55
2022/03/16 09:13:51;;;;;;;16.40;14.43;;;8.60;1.00;;;;;;6302396;28;20331;-56
2022/03/16 09:16:55;;;;;;;17.30;14.87;;;8.70;1.00;;;;;;6307354;28;20250;-53
2022/03/16 09:19:58;;;;;;;18.90;16.40;;;8.70;1.00;;;;;;6294102;28;20235;-54
2022/03/16 09:23:01;;;;;;;17.40;15.13;;;8.80;1.00;;;;;;6307301;28;20296;-54
2022/03/16 09:26:05;;;;;;;17.30;15.50;;;8.80;1.00;;;;;;6308086;28;20239;-54
2022/03/16 09:29:08;;;;;;;17.33;15.47;;;8.70;1.00;;;;;;6305891;28;20317;-55
2022/03/16 09:32:13;;;;;;;18.03;15.70;;;8.60;1.00;;;;;;6301008;28;20236;-53
2022/03/16 09:35:16;;;;;;;17.07;14.93;;;8.50;1.00;;;;;;6304059;28;20635;-55
2022/03/16 09:38:20;;;;;;;18.87;16.30;;;8.60;1.00;;;;;;6301141;28;20255;-55
2022/03/16 09:41:23;;;;;;;17.77;15.03;;;8.50;1.00;;;;;;6305679;28;20319;-55
2022/03/16 09:44:25;;;;;;;16.10;14.40;;;8.60;1.00;;;;;;6291686;28;20387;-54
2022/03/16 09:47:31;;;;;;;17.17;14.47;;;8.70;1.00;;;;;;6303460;28;20723;-54
2022/03/16 09:50:34;;;;;;;19.03;15.40;;;8.70;1.00;;;;;;6300813;28;20232;-53
2022/03/16 09:53:37;;;;;;;21.93;16.40;;;8.90;1.00;;;;;;6303748;28;20701;-54
2022/03/16 09:56:40;;;;;;;17.13;15.20;;;9.00;1.00;;;;;;6307411;28;20288;-54
2022/03/16 09:59:43;;;;;;;18.37;15.23;;;9.00;1.00;;;;;;6303210;28;20504;-53
2022/03/16 10:02:48;;;;;;;17.50;15.57;;;9.20;1.00;;;;;;6306063;28;20320;-55
2022/03/16 10:05:51;;;;;;;21.97;16.40;;;9.40;1.00;;;;;;6305653;28;20259;-54
2022/03/16 10:15:34;;;;;;;16.00;12.97;;;9.60;1.00;;;;;;6297225;28;20252;-56
2022/03/16 10:18:38;;;;;;;16.70;13.33;;;9.70;1.00;;;;;;6304940;28;20929;-55
2022/03/16 10:21:58;;;;;;;13.37;12.07;;;9.80;1.00;;;;;;6306201;28;20225;-53
2022/03/16 10:25:04;;;;;;;14.97;12.37;;;9.90;1.00;;;;;;6301928;28;20221;-55
2022/03/16 10:28:11;;;;;;;13.07;11.87;;;10.00;1.00;;;;;;6300485;28;20635;-55
2022/03/16 10:31:17;;;;;;;12.63;11.33;;;10.00;1.00;;;;;;6304203;28;20436;-54
2022/03/16 10:34:24;;;;;;;14.47;11.83;;;10.10;1.00;;;;;;6295124;28;20638;-55
2022/03/16 10:37:28;;;;;;;13.70;12.30;;;10.20;1.00;;;;;;6307017;28;20236;-54
2022/03/16 10:40:31;;;;;;;12.83;11.63;;;10.40;1.00;;;;;;6305229;28;20642;-54
2022/03/16 10:46:54;;;;;;;13.83;12.43;;;10.40;1.00;;;;;;6305409;28;20705;-55
2022/03/16 10:50:05;;;;;;;12.23;11.13;;;10.40;1.00;;;;;;6303204;28;20370;-54
2022/03/16 10:53:10;;;;;;;13.77;12.30;;;10.50;1.00;;;;;;6301333;28;20233;-54
2022/03/16 10:56:16;;;;;;;15.73;13.07;;;10.50;1.00;;;;;;6307529;28;20274;-54
2022/03/16 10:59:20;;;;;;;18.20;14.07;;;10.40;1.00;;;;;;6304647;28;20312;-54
2022/03/16 11:02:33;;;;;;;17.87;14.27;;;10.30;1.00;;;;;;6306696;28;20260;-53
2022/03/16 11:05:38;;;;;;;17.67;15.40;;;10.50;1.00;;;;;;6306563;28;20252;-54
2022/03/16 11:08:41;;;;;;;20.30;15.47;;;10.50;1.00;;;;;;6305265;28;20745;-54
2022/03/16 11:15:13;;;;;;;23.73;18.13;;;10.60;1.00;;;;;;6265743;28;20318;-54
2022/03/16 11:18:17;;;;;;;20.87;17.67;;;10.90;1.00;;;;;;6298882;28;20367;-54
2022/03/16 11:21:29;;;;;;;25.40;16.77;;;10.80;1.00;;;;;;6306823;28;20389;-54
2022/03/16 11:24:39;;;;;;;30.20;21.67;;;10.80;1.00;;;;;;6305269;28;20264;-53
2022/03/16 11:27:46;;;;;;;18.60;15.87;;;10.80;1.00;;;;;;6305686;28;20336;-54
2022/03/16 11:30:50;;;;;;;16.37;13.93;;;10.90;1.00;;;;;;6306007;28;20786;-53
2022/03/16 11:33:54;;;;;;;15.03;12.93;;;10.60;1.00;;;;;;6303500;28;20559;-55
2022/03/16 11:37:03;;;;;;;13.43;12.00;;;10.50;1.00;;;;;;6304223;28;20233;-57
2022/03/16 11:40:13;;;;;;;21.17;15.50;;;10.70;1.00;;;;;;6305300;28;20518;-54
2022/03/16 11:43:18;;;;;;;21.73;17.07;;;10.60;1.00;;;;;;6299066;28;20374;-54
2022/03/16 11:46:28;;;;;;;17.97;15.10;;;10.70;1.00;;;;;;6306943;28;20324;-54
2022/03/16 11:49:31;;;;;;;22.70;15.93;;;10.60;1.00;;;;;;6305942;28;20243;-53
2022/03/16 11:53:03;;;;;;;21.60;17.50;;;10.60;1.00;;;;;;6308788;28;20232;-55
2022/03/16 11:56:20;;;;;;;24.93;18.10;;;10.70;1.00;;;;;;6308989;28;20240;-55
2022/03/16 11:59:40;;;;;;;23.47;18.73;;;10.80;1.00;;;;;;6317274;28;20259;-55
2022/03/16 12:02:53;;;;;;;24.83;19.83;;;10.90;1.00;;;;;;6318037;28;21008;-54
2022/03/16 12:05:59;;;;;;;25.97;20.13;;;10.80;1.00;;;;;;6313282;28;20233;-54
2022/03/16 12:09:05;;;;;;;24.60;19.13;;;11.00;1.00;;;;;;6305564;28;20236;-56
2022/03/16 12:15:33;;;;;;;25.27;19.53;;;11.20;1.00;;;;;;6309033;28;20614;-55
2022/03/16 12:18:41;;;;;;;25.33;18.27;;;11.20;1.00;;;;;;6308996;28;20717;-55
2022/03/16 12:21:46;;;;;;;26.47;19.67;;;11.40;1.00;;;;;;6310142;28;20240;-54
2022/03/16 12:31:34;;;;;;;30.90;19.40;;;11.90;1.00;;;;;;6303003;28;20524;-55
2022/03/16 12:34:37;;;;;;;24.93;18.80;;;12.10;1.00;;;;;;6309720;28;20320;-55
2022/03/16 12:37:49;;;;;;;28.63;20.40;;;12.10;1.00;;;;;;6307625;28;20250;-56
2022/03/16 12:44:16;;;;;;;30.13;21.03;;;12.50;1.00;;;;;;6305145;28;20248;-55
2022/03/16 12:47:26;;;;;;;28.83;21.63;;;12.40;1.00;;;;;;6309081;28;20752;-54
2022/03/16 12:50:28;;;;;;;30.00;22.60;;;12.50;1.00;;;;;;6306878;28;20362;-54
2022/03/16 12:53:44;;;;;;;26.73;20.17;;;12.60;1.00;;;;;;6310502;28;20700;-56
2022/03/16 12:56:53;;;;;;;27.87;20.47;;;12.50;1.00;;;;;;6308234;28;20256;-55
2022/03/16 12:59:57;;;;;;;29.23;20.53;;;12.20;1.00;;;;;;6309302;28;20308;-54
2022/03/16 13:03:15;;;;;;;27.97;20.77;;;12.10;1.00;;;;;;6308600;28;20709;-55
2022/03/16 13:06:19;;;;;;;27.67;21.13;;;12.10;1.00;;;;;;6309291;28;20233;-54
2022/03/16 13:09:22;;;;;;;28.87;22.00;;;12.00;1.00;;;;;;6306295;28;20243;-55
2022/03/16 13:12:26;;;;;;;29.27;21.03;;;12.20;1.00;;;;;;6306105;28;20320;-56
2022/03/16 13:15:29;;;;;;;28.67;21.33;;;12.10;1.00;;;;;;6307817;28;20320;-54
2022/03/16 13:18:33;;;;;;;30.03;21.60;;;12.20;1.00;;;;;;6307858;28;20321;-56
2022/03/16 13:21:39;;;;;;;30.60;20.43;;;12.30;1.00;;;;;;6309685;28;20790;-54
2022/03/16 13:24:44;;;;;;;30.37;20.83;;;12.40;1.00;;;;;;6303565;28;20757;-55
2022/03/16 13:27:51;;;;;;;35.13;22.23;;;12.40;1.00;;;;;;6307811;28;20453;-57
2022/03/16 13:30:54;;;;;;;35.70;22.73;;;12.40;1.00;;;;;;6303962;28;20750;-54
2022/03/16 13:34:01;;;;;;;33.00;22.57;;;12.40;1.00;;;;;;6307544;28;20298;-55
2022/03/16 13:37:20;;;;;;;34.33;22.33;;;12.40;1.00;;;;;;6307926;28;20785;-56
2022/03/16 13:40:26;;;;;;;31.87;23.03;;;12.50;1.00;;;;;;6300971;28;20251;-55
2022/03/16 13:43:34;;;;;;;30.63;21.80;;;12.60;1.00;;;;;;6297621;28;20363;-55
2022/03/16 13:46:38;;;;;;;32.63;22.70;;;12.70;1.00;;;;;;6299368;28;20359;-55
2022/03/16 13:49:42;;;;;;;36.00;21.40;;;12.80;1.00;;;;;;6308243;28;20544;-56
2022/03/16 13:52:45;;;;;;;29.73;21.03;;;12.90;1.00;;;;;;6307578;28;20251;-54
2022/03/16 13:55:53;;;;;;;31.20;21.93;;;13.00;1.00;;;;;;6307591;28;20459;-56
2022/03/16 13:58:58;;;;;;;31.47;21.37;;;13.10;1.00;;;;;;6307665;28;20503;-54
2022/03/16 14:02:14;;;;;;;28.60;20.73;;;13.20;1.00;;;;;;6308312;28;20374;-56
2022/03/16 14:05:20;;;;;;;31.67;22.10;;;13.20;1.00;;;;;;6301342;28;20233;-55
2022/03/16 14:08:24;;;;;;;31.47;20.97;;;13.20;1.00;;;;;;6306296;28;20625;-54
2022/03/16 14:11:33;;;;;;;30.33;21.97;;;13.30;1.00;;;;;;6306761;28;20228;-55
2022/03/16 14:14:37;;;;;;;34.20;22.10;;;13.20;1.00;;;;;;6294549;28;20374;-55
2022/03/16 14:17:44;;;;;;;28.40;20.70;;;13.20;1.00;;;;;;6307050;28;20277;-55
2022/03/16 14:20:52;;;;;;;34.83;21.00;;;13.10;1.00;;;;;;6305548;28;20283;-56
2022/03/16 14:23:55;;;;;;;29.43;21.00;;;13.20;1.00;;;;;;6304315;28;20394;-55
2022/03/16 14:27:15;;;;;;;34.60;21.37;;;13.10;1.00;;;;;;6305317;28;20803;-56
2022/03/16 14:30:21;;;;;;;27.83;20.37;;;13.00;1.00;;;;;;6304085;28;20221;-56
2022/03/16 14:33:25;;;;;;;25.27;20.03;;;12.70;1.00;;;;;;6298496;28;20813;-54
2022/03/16 14:36:28;;;;;;;28.77;20.57;;;12.70;1.00;;;;;;6306832;28;20282;-55
2022/03/16 14:39:31;;;;;;;27.80;20.40;;;12.80;1.00;;;;;;6297555;28;20270;-53
2022/03/16 14:42:34;;;;;;;27.07;20.20;;;12.80;1.00;;;;;;6306301;28;20236;-56
2022/03/16 14:45:38;;;;;;;23.73;19.77;;;12.90;1.00;;;;;;6305566;28;20232;-56
2022/03/16 14:48:41;;;;;;;27.57;20.43;;;12.90;1.00;;;;;;6300765;28;20236;-54
2022/03/16 14:51:44;;;;;;;24.73;19.50;;;13.00;1.00;;;;;;6308148;28;20732;-54
2022/03/16 14:54:46;;;;;;;26.73;19.23;;;13.10;1.00;;;;;;6302074;28;20534;-56
2022/03/16 14:57:49;;;;;;;27.33;20.67;;;13.10;1.00;;;;;;6307013;28;20252;-54
2022/03/16 15:00:53;;;;;;;27.50;20.37;;;13.10;1.00;;;;;;6307273;28;20237;-55
2022/03/16 15:03:56;;;;;;;27.10;20.17;;;13.00;1.00;;;;;;6303870;28;20231;-54
2022/03/16 15:06:59;;;;;;;23.83;19.50;;;13.00;1.00;;;;;;6307503;28;20220;-54
2022/03/16 15:10:03;;;;;;;27.20;20.17;;;13.00;1.00;;;;;;6305041;28;20235;-54
2022/03/16 15:13:06;;;;;;;28.07;19.97;;;12.90;1.00;;;;;;6305504;28;20235;-55
2022/03/16 15:16:10;;;;;;;27.23;19.57;;;12.80;1.00;;;;;;6307224;28;20370;-55
2022/03/16 15:19:13;;;;;;;27.43;19.17;;;12.80;1.00;;;;;;6303866;28;20240;-55
2022/03/16 15:22:16;;;;;;;21.67;18.30;;;12.70;1.00;;;;;;6307410;28;20374;-55
2022/03/16 15:25:19;;;;;;;25.83;19.17;;;12.60;1.00;;;;;;6303225;28;20456;-56
2022/03/16 15:28:22;;;;;;;22.67;18.70;;;12.50;1.00;;;;;;6300883;28;20252;-55
2022/03/16 15:31:26;;;;;;;21.27;18.53;;;12.40;1.00;;;;;;6311534;28;20232;-54
2022/03/16 15:34:29;;;;;;;23.53;18.50;;;12.30;1.00;;;;;;6310568;28;20320;-54
2022/03/16 15:37:32;;;;;;;21.40;18.80;;;12.20;1.00;;;;;;6309614;28;20593;-54
2022/03/16 15:43:56;;;;;;;25.10;18.57;;;12.10;1.00;;;;;;6300151;28;20310;-53
2022/03/16 15:47:00;;;;;;;26.33;19.97;;;12.00;1.00;;;;;;6302900;28;20360;-55
2022/03/16 15:50:05;;;;;;;21.00;18.73;;;11.90;1.00;;;;;;6311384;28;20320;-56
2022/03/16 15:53:08;;;;;;;23.23;18.77;;;11.80;1.00;;;;;;6310474;28;20233;-55
2022/03/16 15:56:12;;;;;;;23.13;18.90;;;11.80;1.00;;;;;;6300949;28;20853;-55
2022/03/16 15:59:15;;;;;;;21.50;18.70;;;11.70;1.00;;;;;;6308960;28;20602;-55
2022/03/16 16:02:19;;;;;;;25.00;19.87;;;11.70;1.00;;;;;;6311152;28;20833;-54
2022/03/16 16:05:22;;;;;;;31.00;19.87;;;11.50;1.00;;;;;;6301823;28;20328;-54
2022/03/16 16:08:26;;;;;;;25.57;21.47;;;11.40;1.00;;;;;;6310112;28;20250;-54
2022/03/16 16:11:29;;;;;;;26.60;20.23;;;11.30;1.00;;;;;;6308184;28;20248;-54
2022/03/16 16:14:31;;;;;;;25.80;21.43;;;11.20;1.00;;;;;;6306717;28;20729;-56
2022/03/16 16:17:36;;;;;;;25.90;20.97;;;11.10;1.00;;;;;;6310920;28;20276;-54
2022/03/16 16:20:39;;;;;;;30.73;23.23;;;11.10;1.00;;;;;;6310019;28;20290;-56
2022/03/16 16:23:42;;;;;;;28.47;21.93;;;10.90;1.00;;;;;;6306123;28;20237;-54
2022/03/16 16:26:47;;;;;;;32.37;22.93;;;10.80;1.00;;;;;;6310603;28;20304;-55